sensor_id;sensor_type;location;lat;lon;timestamp;P1;durP1;ratioP1;P2;durP2;ratioP2
26303;SDS011;57113;48.680;8.890;2023-03-02T00:00:44;50.45;;;24.00;;
26303;SDS011;57113;48.680;8.890;2023-03-02T00:03:12;48.80;;;23.88;;
26303;SDS011;57113;48.680;8.890;2023-03-02T00:05:42;55.50;;;25.48;;
26303;SDS011;57113;48.680;8.890;2023-03-02T00:08:11;45.13;;;23.17;;
26303;SDS011;57113;48.680;8.890;2023-03-02T00:10:40;47.17;;;23.30;;
26303;SDS011;57113;48.680;8.890;2023-03-02T00:13:06;44.85;;;22.35;;
26303;SDS011;57113;48.680;8.890;2023-03-02T00:15:31;41.90;;;22.35;;
26303;SDS011;57113;48.680;8.890;2023-03-02T00:17:57;42.33;;;22.33;;
26303;SDS011;57113;48.680;8.890;2023-03-02T00:20:23;38.95;;;22.38;;
26303;SDS011;57113;48.680;8.890;2023-03-02T00:22:48;48.10;;;22.40;;
26303;SDS011;57113;48.680;8.890;2023-03-02T00:25:14;36.10;;;21.13;;
26303;SDS011;57113;48.680;8.890;2023-03-02T00:27:41;45.97;;;21.35;;
26303;SDS011;57113;48.680;8.890;2023-03-02T00:30:07;39.38;;;22.60;;
26303;SDS011;57113;48.680;8.890;2023-03-02T00:32:34;40.97;;;21.50;;
26303;SDS011;57113;48.680;8.890;2023-03-02T00:34:59;41.85;;;21.88;;
26303;SDS011;57113;48.680;8.890;2023-03-02T00:37:25;43.03;;;21.73;;
26303;SDS011;57113;48.680;8.890;2023-03-02T00:39:51;38.80;;;20.92;;
26303;SDS011;57113;48.680;8.890;2023-03-02T00:42:17;34.78;;;20.77;;
26303;SDS011;57113;48.680;8.890;2023-03-02T00:44:44;37.10;;;20.60;;
26303;SDS011;57113;48.680;8.890;2023-03-02T00:47:09;40.35;;;21.60;;
26303;SDS011;57113;48.680;8.890;2023-03-02T00:49:35;50.35;;;21.60;;
26303;SDS011;57113;48.680;8.890;2023-03-02T00:52:01;38.70;;;21.65;;
26303;SDS011;57113;48.680;8.890;2023-03-02T00:54:27;42.10;;;21.40;;
26303;SDS011;57113;48.680;8.890;2023-03-02T00:56:53;39.08;;;20.77;;
26303;SDS011;57113;48.680;8.890;2023-03-02T00:59:19;39.50;;;20.45;;
26303;SDS011;57113;48.680;8.890;2023-03-02T01:01:51;42.05;;;22.02;;
26303;SDS011;57113;48.680;8.890;2023-03-02T01:04:31;38.25;;;19.83;;
26303;SDS011;57113;48.680;8.890;2023-03-02T01:07:09;39.85;;;20.77;;
26303;SDS011;57113;48.680;8.890;2023-03-02T01:09:37;39.38;;;22.30;;
26303;SDS011;57113;48.680;8.890;2023-03-02T01:12:05;42.10;;;21.77;;
26303;SDS011;57113;48.680;8.890;2023-03-02T01:14:38;36.65;;;19.83;;
26303;SDS011;57113;48.680;8.890;2023-03-02T01:17:06;41.95;;;20.58;;
26303;SDS011;57113;48.680;8.890;2023-03-02T01:19:32;39.38;;;20.65;;
26303;SDS011;57113;48.680;8.890;2023-03-02T01:21:58;37.97;;;20.45;;
26303;SDS011;57113;48.680;8.890;2023-03-02T01:24:24;40.20;;;20.33;;
26303;SDS011;57113;48.680;8.890;2023-03-02T01:26:50;39.10;;;21.15;;
26303;SDS011;57113;48.680;8.890;2023-03-02T01:29:15;41.42;;;20.25;;
26303;SDS011;57113;48.680;8.890;2023-03-02T01:31:41;39.15;;;19.77;;
26303;SDS011;57113;48.680;8.890;2023-03-02T01:34:06;38.42;;;20.15;;
26303;SDS011;57113;48.680;8.890;2023-03-02T01:36:32;40.03;;;20.88;;
26303;SDS011;57113;48.680;8.890;2023-03-02T01:38:58;38.08;;;19.48;;
26303;SDS011;57113;48.680;8.890;2023-03-02T01:41:24;38.60;;;20.02;;
26303;SDS011;57113;48.680;8.890;2023-03-02T01:43:50;39.63;;;21.88;;
26303;SDS011;57113;48.680;8.890;2023-03-02T01:51:24;36.97;;;19.80;;
26303;SDS011;57113;48.680;8.890;2023-03-02T01:53:52;37.78;;;20.42;;
26303;SDS011;57113;48.680;8.890;2023-03-02T01:56:28;42.00;;;20.42;;
26303;SDS011;57113;48.680;8.890;2023-03-02T01:58:59;40.15;;;20.17;;
26303;SDS011;57113;48.680;8.890;2023-03-02T02:01:31;38.20;;;20.92;;
26303;SDS011;57113;48.680;8.890;2023-03-02T02:04:00;39.22;;;20.95;;
26303;SDS011;57113;48.680;8.890;2023-03-02T02:06:30;39.33;;;19.67;;
26303;SDS011;57113;48.680;8.890;2023-03-02T02:09:01;34.67;;;19.10;;
26303;SDS011;57113;48.680;8.890;2023-03-02T02:11:28;33.17;;;19.40;;
26303;SDS011;57113;48.680;8.890;2023-03-02T02:13:55;41.15;;;20.45;;
26303;SDS011;57113;48.680;8.890;2023-03-02T02:16:23;36.15;;;19.77;;
26303;SDS011;57113;48.680;8.890;2023-03-02T02:18:50;39.97;;;19.52;;
26303;SDS011;57113;48.680;8.890;2023-03-02T02:21:16;38.08;;;21.38;;
26303;SDS011;57113;48.680;8.890;2023-03-02T02:26:30;34.17;;;19.92;;
26303;SDS011;57113;48.680;8.890;2023-03-02T02:29:11;42.05;;;20.13;;
26303;SDS011;57113;48.680;8.890;2023-03-02T02:31:47;38.38;;;20.58;;
26303;SDS011;57113;48.680;8.890;2023-03-02T02:34:17;41.45;;;20.63;;
26303;SDS011;57113;48.680;8.890;2023-03-02T02:36:46;41.17;;;21.88;;
26303;SDS011;57113;48.680;8.890;2023-03-02T02:39:26;39.55;;;21.08;;
26303;SDS011;57113;48.680;8.890;2023-03-02T02:41:57;37.45;;;21.30;;
26303;SDS011;57113;48.680;8.890;2023-03-02T02:44:25;41.05;;;20.88;;
26303;SDS011;57113;48.680;8.890;2023-03-02T02:46:51;34.83;;;20.38;;
26303;SDS011;57113;48.680;8.890;2023-03-02T02:51:42;36.85;;;20.63;;
26303;SDS011;57113;48.680;8.890;2023-03-02T02:54:07;35.10;;;19.83;;
26303;SDS011;57113;48.680;8.890;2023-03-02T02:56:38;40.70;;;21.13;;
26303;SDS011;57113;48.680;8.890;2023-03-02T02:59:26;35.80;;;20.10;;
26303;SDS011;57113;48.680;8.890;2023-03-02T03:01:53;37.97;;;19.80;;
26303;SDS011;57113;48.680;8.890;2023-03-02T03:04:20;32.47;;;19.23;;
26303;SDS011;57113;48.680;8.890;2023-03-02T03:07:02;40.55;;;21.10;;
26303;SDS011;57113;48.680;8.890;2023-03-02T03:09:30;41.63;;;21.25;;
26303;SDS011;57113;48.680;8.890;2023-03-02T03:11:56;43.33;;;21.25;;
26303;SDS011;57113;48.680;8.890;2023-03-02T03:14:36;35.45;;;19.73;;
26303;SDS011;57113;48.680;8.890;2023-03-02T03:17:04;41.08;;;22.02;;
26303;SDS011;57113;48.680;8.890;2023-03-02T03:19:36;42.58;;;22.15;;
26303;SDS011;57113;48.680;8.890;2023-03-02T03:22:04;42.75;;;21.63;;
26303;SDS011;57113;48.680;8.890;2023-03-02T03:24:30;36.90;;;20.58;;
26303;SDS011;57113;48.680;8.890;2023-03-02T03:26:58;38.47;;;20.73;;
26303;SDS011;57113;48.680;8.890;2023-03-02T03:29:26;39.00;;;20.95;;
26303;SDS011;57113;48.680;8.890;2023-03-02T03:31:54;40.15;;;21.23;;
26303;SDS011;57113;48.680;8.890;2023-03-02T03:34:21;35.88;;;20.55;;
26303;SDS011;57113;48.680;8.890;2023-03-02T03:36:48;35.70;;;21.45;;
26303;SDS011;57113;48.680;8.890;2023-03-02T03:39:14;40.63;;;21.95;;
26303;SDS011;57113;48.680;8.890;2023-03-02T03:41:41;43.83;;;22.98;;
26303;SDS011;57113;48.680;8.890;2023-03-02T03:44:07;40.13;;;21.27;;
26303;SDS011;57113;48.680;8.890;2023-03-02T03:46:33;46.17;;;23.30;;
26303;SDS011;57113;48.680;8.890;2023-03-02T03:48:59;44.25;;;22.70;;
26303;SDS011;57113;48.680;8.890;2023-03-02T03:51:25;38.65;;;21.35;;
26303;SDS011;57113;48.680;8.890;2023-03-02T03:53:52;41.08;;;22.15;;
26303;SDS011;57113;48.680;8.890;2023-03-02T03:56:28;43.03;;;21.98;;
26303;SDS011;57113;48.680;8.890;2023-03-02T03:58:54;40.22;;;21.35;;
26303;SDS011;57113;48.680;8.890;2023-03-02T04:03:59;40.97;;;22.50;;
26303;SDS011;57113;48.680;8.890;2023-03-02T04:06:25;43.45;;;22.20;;
26303;SDS011;57113;48.680;8.890;2023-03-02T04:08:51;44.72;;;23.25;;
26303;SDS011;57113;48.680;8.890;2023-03-02T04:11:17;50.95;;;26.85;;
26303;SDS011;57113;48.680;8.890;2023-03-02T04:13:43;57.03;;;27.55;;
26303;SDS011;57113;48.680;8.890;2023-03-02T04:16:09;48.70;;;24.45;;
26303;SDS011;57113;48.680;8.890;2023-03-02T04:18:35;42.92;;;23.42;;
26303;SDS011;57113;48.680;8.890;2023-03-02T04:21:01;44.90;;;22.73;;
26303;SDS011;57113;48.680;8.890;2023-03-02T04:23:27;44.38;;;23.00;;
26303;SDS011;57113;48.680;8.890;2023-03-02T04:25:53;41.65;;;23.23;;
26303;SDS011;57113;48.680;8.890;2023-03-02T04:28:19;42.90;;;23.95;;
26303;SDS011;57113;48.680;8.890;2023-03-02T04:30:45;44.03;;;23.27;;
26303;SDS011;57113;48.680;8.890;2023-03-02T04:33:11;43.63;;;23.35;;
26303;SDS011;57113;48.680;8.890;2023-03-02T04:35:37;44.17;;;23.02;;
26303;SDS011;57113;48.680;8.890;2023-03-02T04:38:03;45.05;;;22.67;;
26303;SDS011;57113;48.680;8.890;2023-03-02T04:40:29;48.60;;;24.10;;
26303;SDS011;57113;48.680;8.890;2023-03-02T04:42:55;44.15;;;23.80;;
26303;SDS011;57113;48.680;8.890;2023-03-02T04:45:21;41.80;;;22.80;;
26303;SDS011;57113;48.680;8.890;2023-03-02T04:47:47;41.72;;;22.95;;
26303;SDS011;57113;48.680;8.890;2023-03-02T04:50:13;40.15;;;21.67;;
26303;SDS011;57113;48.680;8.890;2023-03-02T04:52:39;44.22;;;23.85;;
26303;SDS011;57113;48.680;8.890;2023-03-02T04:55:06;43.53;;;23.58;;
26303;SDS011;57113;48.680;8.890;2023-03-02T04:57:32;41.83;;;22.98;;
26303;SDS011;57113;48.680;8.890;2023-03-02T04:59:58;42.97;;;23.67;;
26303;SDS011;57113;48.680;8.890;2023-03-02T05:02:24;45.75;;;24.25;;
26303;SDS011;57113;48.680;8.890;2023-03-02T05:04:50;43.08;;;23.35;;
26303;SDS011;57113;48.680;8.890;2023-03-02T05:07:16;43.78;;;23.92;;
26303;SDS011;57113;48.680;8.890;2023-03-02T05:09:42;47.35;;;24.08;;
26303;SDS011;57113;48.680;8.890;2023-03-02T05:12:08;43.45;;;24.50;;
26303;SDS011;57113;48.680;8.890;2023-03-02T05:14:34;56.72;;;27.80;;
26303;SDS011;57113;48.680;8.890;2023-03-02T05:17:00;59.45;;;29.38;;
26303;SDS011;57113;48.680;8.890;2023-03-02T05:19:26;50.28;;;26.17;;
26303;SDS011;57113;48.680;8.890;2023-03-02T05:21:52;52.03;;;25.08;;
26303;SDS011;57113;48.680;8.890;2023-03-02T05:24:18;50.00;;;25.63;;
26303;SDS011;57113;48.680;8.890;2023-03-02T05:26:44;51.03;;;26.13;;
26303;SDS011;57113;48.680;8.890;2023-03-02T05:29:10;46.67;;;25.75;;
26303;SDS011;57113;48.680;8.890;2023-03-02T05:31:40;48.85;;;25.52;;
26303;SDS011;57113;48.680;8.890;2023-03-02T05:34:08;47.60;;;26.80;;
26303;SDS011;57113;48.680;8.890;2023-03-02T05:36:35;63.85;;;29.58;;
26303;SDS011;57113;48.680;8.890;2023-03-02T05:39:02;57.30;;;26.95;;
26303;SDS011;57113;48.680;8.890;2023-03-02T05:41:28;41.28;;;24.27;;
26303;SDS011;57113;48.680;8.890;2023-03-02T05:43:54;52.97;;;28.77;;
26303;SDS011;57113;48.680;8.890;2023-03-02T05:46:20;63.53;;;31.75;;
26303;SDS011;57113;48.680;8.890;2023-03-02T05:48:46;62.92;;;32.17;;
26303;SDS011;57113;48.680;8.890;2023-03-02T05:51:12;55.70;;;29.75;;
26303;SDS011;57113;48.680;8.890;2023-03-02T05:53:38;73.80;;;31.95;;
26303;SDS011;57113;48.680;8.890;2023-03-02T05:56:04;50.90;;;26.00;;
26303;SDS011;57113;48.680;8.890;2023-03-02T05:58:30;50.88;;;27.60;;
26303;SDS011;57113;48.680;8.890;2023-03-02T06:00:56;52.35;;;28.08;;
26303;SDS011;57113;48.680;8.890;2023-03-02T06:03:22;52.90;;;28.02;;
26303;SDS011;57113;48.680;8.890;2023-03-02T06:05:48;60.70;;;29.83;;
26303;SDS011;57113;48.680;8.890;2023-03-02T06:08:15;59.53;;;30.73;;
26303;SDS011;57113;48.680;8.890;2023-03-02T06:10:42;58.08;;;30.48;;
26303;SDS011;57113;48.680;8.890;2023-03-02T06:13:08;61.70;;;33.33;;
26303;SDS011;57113;48.680;8.890;2023-03-02T06:15:34;66.72;;;34.90;;
26303;SDS011;57113;48.680;8.890;2023-03-02T06:18:01;81.18;;;38.83;;
26303;SDS011;57113;48.680;8.890;2023-03-02T06:20:27;70.63;;;35.13;;
26303;SDS011;57113;48.680;8.890;2023-03-02T06:22:53;58.78;;;31.13;;
26303;SDS011;57113;48.680;8.890;2023-03-02T06:25:20;62.58;;;30.55;;
26303;SDS011;57113;48.680;8.890;2023-03-02T06:27:47;52.78;;;28.15;;
26303;SDS011;57113;48.680;8.890;2023-03-02T06:30:18;58.97;;;29.63;;
26303;SDS011;57113;48.680;8.890;2023-03-02T06:32:44;54.00;;;30.02;;
26303;SDS011;57113;48.680;8.890;2023-03-02T06:35:11;116.45;;;43.97;;
26303;SDS011;57113;48.680;8.890;2023-03-02T06:37:37;159.20;;;56.17;;
26303;SDS011;57113;48.680;8.890;2023-03-02T06:40:03;125.55;;;50.85;;
26303;SDS011;57113;48.680;8.890;2023-03-02T06:42:34;104.28;;;42.20;;
26303;SDS011;57113;48.680;8.890;2023-03-02T06:45:00;82.93;;;39.15;;
26303;SDS011;57113;48.680;8.890;2023-03-02T06:47:26;71.03;;;37.33;;
26303;SDS011;57113;48.680;8.890;2023-03-02T06:49:52;64.47;;;33.40;;
26303;SDS011;57113;48.680;8.890;2023-03-02T06:52:18;63.95;;;33.10;;
26303;SDS011;57113;48.680;8.890;2023-03-02T06:54:44;70.88;;;32.88;;
26303;SDS011;57113;48.680;8.890;2023-03-02T06:57:10;69.30;;;33.22;;
26303;SDS011;57113;48.680;8.890;2023-03-02T06:59:36;78.63;;;36.60;;
26303;SDS011;57113;48.680;8.890;2023-03-02T07:02:02;78.15;;;35.50;;
26303;SDS011;57113;48.680;8.890;2023-03-02T07:04:28;62.13;;;30.40;;
26303;SDS011;57113;48.680;8.890;2023-03-02T07:06:54;57.65;;;29.23;;
26303;SDS011;57113;48.680;8.890;2023-03-02T07:09:20;56.20;;;30.08;;
26303;SDS011;57113;48.680;8.890;2023-03-02T07:11:46;57.67;;;27.77;;
26303;SDS011;57113;48.680;8.890;2023-03-02T07:14:12;54.15;;;29.45;;
26303;SDS011;57113;48.680;8.890;2023-03-02T07:16:38;51.35;;;28.20;;
26303;SDS011;57113;48.680;8.890;2023-03-02T07:19:04;56.85;;;28.65;;
26303;SDS011;57113;48.680;8.890;2023-03-02T07:21:30;56.40;;;29.10;;
26303;SDS011;57113;48.680;8.890;2023-03-02T07:23:56;52.90;;;28.42;;
26303;SDS011;57113;48.680;8.890;2023-03-02T07:26:22;48.72;;;27.42;;
26303;SDS011;57113;48.680;8.890;2023-03-02T07:28:48;50.97;;;28.35;;
26303;SDS011;57113;48.680;8.890;2023-03-02T07:31:14;54.92;;;28.83;;
26303;SDS011;57113;48.680;8.890;2023-03-02T07:33:40;53.67;;;29.50;;
26303;SDS011;57113;48.680;8.890;2023-03-02T07:36:06;50.40;;;28.42;;
26303;SDS011;57113;48.680;8.890;2023-03-02T07:38:32;48.60;;;27.58;;
26303;SDS011;57113;48.680;8.890;2023-03-02T07:40:59;51.67;;;27.88;;
26303;SDS011;57113;48.680;8.890;2023-03-02T07:43:25;50.70;;;28.42;;
26303;SDS011;57113;48.680;8.890;2023-03-02T07:45:52;52.97;;;28.90;;
26303;SDS011;57113;48.680;8.890;2023-03-02T07:48:18;54.22;;;28.58;;
26303;SDS011;57113;48.680;8.890;2023-03-02T07:50:47;58.40;;;29.65;;
26303;SDS011;57113;48.680;8.890;2023-03-02T07:53:13;55.55;;;28.70;;
26303;SDS011;57113;48.680;8.890;2023-03-02T07:55:39;53.88;;;27.45;;
26303;SDS011;57113;48.680;8.890;2023-03-02T07:58:05;50.28;;;26.75;;
26303;SDS011;57113;48.680;8.890;2023-03-02T08:00:31;47.97;;;26.55;;
26303;SDS011;57113;48.680;8.890;2023-03-02T08:02:57;50.17;;;27.65;;
26303;SDS011;57113;48.680;8.890;2023-03-02T08:05:23;54.63;;;26.48;;
26303;SDS011;57113;48.680;8.890;2023-03-02T08:07:49;47.15;;;25.73;;
26303;SDS011;57113;48.680;8.890;2023-03-02T08:10:15;46.92;;;25.77;;
26303;SDS011;57113;48.680;8.890;2023-03-02T08:12:41;48.58;;;27.13;;
26303;SDS011;57113;48.680;8.890;2023-03-02T08:15:08;45.83;;;25.30;;
26303;SDS011;57113;48.680;8.890;2023-03-02T08:17:34;53.90;;;25.85;;
26303;SDS011;57113;48.680;8.890;2023-03-02T08:20:00;48.33;;;26.60;;
26303;SDS011;57113;48.680;8.890;2023-03-02T08:22:28;46.03;;;26.15;;
26303;SDS011;57113;48.680;8.890;2023-03-02T08:24:54;48.97;;;26.65;;
26303;SDS011;57113;48.680;8.890;2023-03-02T08:27:20;50.28;;;27.60;;
26303;SDS011;57113;48.680;8.890;2023-03-02T08:29:46;48.78;;;27.15;;
26303;SDS011;57113;48.680;8.890;2023-03-02T08:32:12;47.17;;;24.75;;
26303;SDS011;57113;48.680;8.890;2023-03-02T08:34:38;42.65;;;25.77;;
26303;SDS011;57113;48.680;8.890;2023-03-02T08:37:04;47.88;;;28.67;;
26303;SDS011;57113;48.680;8.890;2023-03-02T08:39:30;49.65;;;27.15;;
26303;SDS011;57113;48.680;8.890;2023-03-02T08:41:57;49.50;;;25.23;;
26303;SDS011;57113;48.680;8.890;2023-03-02T08:44:23;47.92;;;26.02;;
26303;SDS011;57113;48.680;8.890;2023-03-02T08:46:49;53.25;;;29.10;;
26303;SDS011;57113;48.680;8.890;2023-03-02T08:49:16;53.88;;;26.95;;
26303;SDS011;57113;48.680;8.890;2023-03-02T08:51:42;48.58;;;24.67;;
26303;SDS011;57113;48.680;8.890;2023-03-02T08:54:08;47.95;;;25.70;;
26303;SDS011;57113;48.680;8.890;2023-03-02T08:56:35;59.22;;;30.33;;
26303;SDS011;57113;48.680;8.890;2023-03-02T08:59:03;45.53;;;23.98;;
26303;SDS011;57113;48.680;8.890;2023-03-02T09:01:32;53.25;;;25.13;;
26303;SDS011;57113;48.680;8.890;2023-03-02T09:03:59;41.10;;;24.08;;
26303;SDS011;57113;48.680;8.890;2023-03-02T09:06:26;52.47;;;26.08;;
26303;SDS011;57113;48.680;8.890;2023-03-02T09:08:53;45.03;;;25.52;;
26303;SDS011;57113;48.680;8.890;2023-03-02T09:11:19;43.15;;;25.00;;
26303;SDS011;57113;48.680;8.890;2023-03-02T09:13:46;43.70;;;24.35;;
26303;SDS011;57113;48.680;8.890;2023-03-02T09:16:12;43.88;;;23.85;;
26303;SDS011;57113;48.680;8.890;2023-03-02T09:18:38;45.83;;;24.65;;
26303;SDS011;57113;48.680;8.890;2023-03-02T09:21:04;44.50;;;24.55;;
26303;SDS011;57113;48.680;8.890;2023-03-02T09:23:31;47.95;;;24.85;;
26303;SDS011;57113;48.680;8.890;2023-03-02T09:25:57;51.30;;;27.42;;
26303;SDS011;57113;48.680;8.890;2023-03-02T09:28:23;45.67;;;25.55;;
26303;SDS011;57113;48.680;8.890;2023-03-02T09:30:50;49.85;;;23.95;;
26303;SDS011;57113;48.680;8.890;2023-03-02T09:33:18;46.00;;;22.80;;
26303;SDS011;57113;48.680;8.890;2023-03-02T09:35:44;45.15;;;22.15;;
26303;SDS011;57113;48.680;8.890;2023-03-02T09:38:11;46.70;;;23.77;;
26303;SDS011;57113;48.680;8.890;2023-03-02T09:48:52;47.88;;;24.13;;
26303;SDS011;57113;48.680;8.890;2023-03-02T09:54:10;44.90;;;22.52;;
26303;SDS011;57113;48.680;8.890;2023-03-02T09:56:42;41.42;;;22.63;;
26303;SDS011;57113;48.680;8.890;2023-03-02T10:01:53;45.38;;;23.63;;
26303;SDS011;57113;48.680;8.890;2023-03-02T10:04:29;47.35;;;23.80;;
26303;SDS011;57113;48.680;8.890;2023-03-02T10:07:04;44.05;;;24.75;;
26303;SDS011;57113;48.680;8.890;2023-03-02T10:09:37;46.38;;;23.83;;
26303;SDS011;57113;48.680;8.890;2023-03-02T10:14:59;46.60;;;23.73;;
26303;SDS011;57113;48.680;8.890;2023-03-02T10:20:03;43.92;;;22.88;;
26303;SDS011;57113;48.680;8.890;2023-03-02T10:22:37;40.50;;;22.25;;
26303;SDS011;57113;48.680;8.890;2023-03-02T10:25:15;40.80;;;22.88;;
26303;SDS011;57113;48.680;8.890;2023-03-02T10:27:42;40.50;;;22.23;;
26303;SDS011;57113;48.680;8.890;2023-03-02T10:30:30;41.67;;;22.63;;
26303;SDS011;57113;48.680;8.890;2023-03-02T10:33:01;38.53;;;22.63;;
26303;SDS011;57113;48.680;8.890;2023-03-02T10:35:33;43.08;;;23.00;;
26303;SDS011;57113;48.680;8.890;2023-03-02T10:38:12;36.92;;;22.35;;
26303;SDS011;57113;48.680;8.890;2023-03-02T10:46:01;35.92;;;20.65;;
26303;SDS011;57113;48.680;8.890;2023-03-02T10:48:29;34.53;;;20.83;;
26303;SDS011;57113;48.680;8.890;2023-03-02T10:50:55;35.22;;;20.98;;
26303;SDS011;57113;48.680;8.890;2023-03-02T10:53:22;38.15;;;22.08;;
26303;SDS011;57113;48.680;8.890;2023-03-02T10:55:49;35.97;;;20.48;;
26303;SDS011;57113;48.680;8.890;2023-03-02T11:01:00;37.30;;;20.52;;
26303;SDS011;57113;48.680;8.890;2023-03-02T11:03:31;30.08;;;19.33;;
26303;SDS011;57113;48.680;8.890;2023-03-02T11:05:57;31.67;;;19.58;;
26303;SDS011;57113;48.680;8.890;2023-03-02T11:08:34;34.05;;;18.85;;
26303;SDS011;57113;48.680;8.890;2023-03-02T11:11:01;33.42;;;18.42;;
26303;SDS011;57113;48.680;8.890;2023-03-02T11:13:29;30.90;;;18.75;;
26303;SDS011;57113;48.680;8.890;2023-03-02T11:16:02;29.95;;;18.73;;
26303;SDS011;57113;48.680;8.890;2023-03-02T11:18:33;32.03;;;18.40;;
26303;SDS011;57113;48.680;8.890;2023-03-02T11:21:10;32.53;;;18.23;;
26303;SDS011;57113;48.680;8.890;2023-03-02T11:26:19;28.75;;;17.25;;
26303;SDS011;57113;48.680;8.890;2023-03-02T11:29:10;28.15;;;17.45;;
26303;SDS011;57113;48.680;8.890;2023-03-02T11:32:19;32.50;;;16.85;;
26303;SDS011;57113;48.680;8.890;2023-03-02T11:37:27;25.23;;;16.27;;
26303;SDS011;57113;48.680;8.890;2023-03-02T11:42:30;28.33;;;16.50;;
26303;SDS011;57113;48.680;8.890;2023-03-02T11:47:52;27.90;;;15.82;;
26303;SDS011;57113;48.680;8.890;2023-03-02T11:50:25;28.75;;;15.95;;
26303;SDS011;57113;48.680;8.890;2023-03-02T11:52:53;25.40;;;15.63;;
26303;SDS011;57113;48.680;8.890;2023-03-02T11:55:24;25.95;;;15.85;;
26303;SDS011;57113;48.680;8.890;2023-03-02T11:57:55;23.38;;;14.88;;
26303;SDS011;57113;48.680;8.890;2023-03-02T12:00:35;25.35;;;14.63;;
26303;SDS011;57113;48.680;8.890;2023-03-02T12:05:35;23.23;;;15.00;;
26303;SDS011;57113;48.680;8.890;2023-03-02T12:08:07;22.17;;;13.57;;
26303;SDS011;57113;48.680;8.890;2023-03-02T12:10:38;24.08;;;13.98;;
26303;SDS011;57113;48.680;8.890;2023-03-02T12:13:17;26.45;;;14.50;;
26303;SDS011;57113;48.680;8.890;2023-03-02T12:15:45;24.42;;;14.63;;
26303;SDS011;57113;48.680;8.890;2023-03-02T12:18:39;21.05;;;13.05;;
26303;SDS011;57113;48.680;8.890;2023-03-02T12:23:30;38.30;;;21.45;;
26303;SDS011;57113;48.680;8.890;2023-03-02T12:26:01;40.58;;;21.83;;
26303;SDS011;57113;48.680;8.890;2023-03-02T12:28:30;37.40;;;20.33;;
26303;SDS011;57113;48.680;8.890;2023-03-02T12:31:37;36.55;;;19.60;;
26303;SDS011;57113;48.680;8.890;2023-03-02T12:33:50;32.95;;;18.52;;
26303;SDS011;57113;48.680;8.890;2023-03-02T12:36:18;31.17;;;18.98;;
26303;SDS011;57113;48.680;8.890;2023-03-02T12:38:49;33.58;;;18.92;;
26303;SDS011;57113;48.680;8.890;2023-03-02T12:41:20;30.08;;;18.40;;
26303;SDS011;57113;48.680;8.890;2023-03-02T12:46:23;33.80;;;19.75;;
26303;SDS011;57113;48.680;8.890;2023-03-02T12:49:04;31.48;;;18.85;;
26303;SDS011;57113;48.680;8.890;2023-03-02T12:54:30;27.42;;;17.00;;
26303;SDS011;57113;48.680;8.890;2023-03-02T12:57:07;30.75;;;17.90;;
26303;SDS011;57113;48.680;8.890;2023-03-02T12:59:38;29.63;;;17.17;;
26303;SDS011;57113;48.680;8.890;2023-03-02T13:04:30;28.85;;;16.98;;
26303;SDS011;57113;48.680;8.890;2023-03-02T13:06:56;29.02;;;16.77;;
26303;SDS011;57113;48.680;8.890;2023-03-02T13:09:22;26.92;;;16.63;;
26303;SDS011;57113;48.680;8.890;2023-03-02T13:11:48;26.73;;;15.90;;
26303;SDS011;57113;48.680;8.890;2023-03-02T13:14:24;27.83;;;15.68;;
26303;SDS011;57113;48.680;8.890;2023-03-02T13:16:54;30.63;;;17.20;;
26303;SDS011;57113;48.680;8.890;2023-03-02T13:19:21;26.58;;;14.95;;
26303;SDS011;57113;48.680;8.890;2023-03-02T13:21:47;29.98;;;16.58;;
26303;SDS011;57113;48.680;8.890;2023-03-02T13:26:53;29.17;;;15.73;;
26303;SDS011;57113;48.680;8.890;2023-03-02T13:29:20;23.60;;;14.75;;
26303;SDS011;57113;48.680;8.890;2023-03-02T13:31:50;25.60;;;15.05;;
26303;SDS011;57113;48.680;8.890;2023-03-02T13:34:24;24.15;;;15.30;;
26303;SDS011;57113;48.680;8.890;2023-03-02T13:36:50;24.52;;;14.25;;
26303;SDS011;57113;48.680;8.890;2023-03-02T13:39:21;24.13;;;15.07;;
26303;SDS011;57113;48.680;8.890;2023-03-02T13:41:54;21.27;;;13.40;;
26303;SDS011;57113;48.680;8.890;2023-03-02T13:44:25;23.13;;;13.75;;
26303;SDS011;57113;48.680;8.890;2023-03-02T13:46:51;23.17;;;13.70;;
26303;SDS011;57113;48.680;8.890;2023-03-02T13:49:27;22.48;;;13.85;;
26303;SDS011;57113;48.680;8.890;2023-03-02T13:52:01;23.33;;;13.45;;
26303;SDS011;57113;48.680;8.890;2023-03-02T13:54:28;20.10;;;13.43;;
26303;SDS011;57113;48.680;8.890;2023-03-02T13:56:55;23.52;;;13.40;;
26303;SDS011;57113;48.680;8.890;2023-03-02T13:59:22;22.77;;;13.02;;
26303;SDS011;57113;48.680;8.890;2023-03-02T14:01:49;21.95;;;13.75;;
26303;SDS011;57113;48.680;8.890;2023-03-02T14:04:16;17.55;;;12.10;;
26303;SDS011;57113;48.680;8.890;2023-03-02T14:06:42;19.48;;;12.32;;
26303;SDS011;57113;48.680;8.890;2023-03-02T14:09:08;17.92;;;12.13;;
26303;SDS011;57113;48.680;8.890;2023-03-02T14:11:35;19.42;;;12.27;;
26303;SDS011;57113;48.680;8.890;2023-03-02T14:14:02;19.85;;;12.60;;
26303;SDS011;57113;48.680;8.890;2023-03-02T14:16:30;20.17;;;12.15;;
26303;SDS011;57113;48.680;8.890;2023-03-02T14:19:00;19.15;;;12.40;;
26303;SDS011;57113;48.680;8.890;2023-03-02T14:21:26;19.50;;;12.05;;
26303;SDS011;57113;48.680;8.890;2023-03-02T14:23:53;18.45;;;12.15;;
26303;SDS011;57113;48.680;8.890;2023-03-02T14:28:58;55.92;;;18.10;;
26303;SDS011;57113;48.680;8.890;2023-03-02T14:31:25;34.80;;;20.33;;
26303;SDS011;57113;48.680;8.890;2023-03-02T14:33:51;42.78;;;19.75;;
26303;SDS011;57113;48.680;8.890;2023-03-02T14:36:38;29.10;;;18.60;;
26303;SDS011;57113;48.680;8.890;2023-03-02T14:39:04;33.90;;;19.70;;
26303;SDS011;57113;48.680;8.890;2023-03-02T14:41:31;33.95;;;18.45;;
26303;SDS011;57113;48.680;8.890;2023-03-02T14:44:02;29.10;;;18.17;;
26303;SDS011;57113;48.680;8.890;2023-03-02T14:46:28;23.92;;;15.90;;
26303;SDS011;57113;48.680;8.890;2023-03-02T14:48:53;28.35;;;16.90;;
26303;SDS011;57113;48.680;8.890;2023-03-02T14:51:20;28.60;;;17.30;;
26303;SDS011;57113;48.680;8.890;2023-03-02T14:53:49;26.48;;;15.88;;
26303;SDS011;57113;48.680;8.890;2023-03-02T14:56:17;26.40;;;16.27;;
26303;SDS011;57113;48.680;8.890;2023-03-02T14:58:47;25.33;;;15.73;;
26303;SDS011;57113;48.680;8.890;2023-03-02T15:01:14;24.60;;;14.95;;
26303;SDS011;57113;48.680;8.890;2023-03-02T15:03:40;25.58;;;15.43;;
26303;SDS011;57113;48.680;8.890;2023-03-02T15:06:11;23.60;;;15.32;;
26303;SDS011;57113;48.680;8.890;2023-03-02T15:08:43;27.00;;;13.73;;
26303;SDS011;57113;48.680;8.890;2023-03-02T15:11:08;23.30;;;14.27;;
26303;SDS011;57113;48.680;8.890;2023-03-02T15:13:34;23.83;;;13.63;;
26303;SDS011;57113;48.680;8.890;2023-03-02T15:16:00;22.38;;;14.32;;
26303;SDS011;57113;48.680;8.890;2023-03-02T15:18:25;20.95;;;13.10;;
26303;SDS011;57113;48.680;8.890;2023-03-02T15:20:51;21.88;;;13.95;;
26303;SDS011;57113;48.680;8.890;2023-03-02T15:23:16;20.83;;;12.85;;
26303;SDS011;57113;48.680;8.890;2023-03-02T15:25:42;20.92;;;13.10;;
26303;SDS011;57113;48.680;8.890;2023-03-02T15:28:08;20.42;;;12.43;;
26303;SDS011;57113;48.680;8.890;2023-03-02T15:30:34;23.65;;;12.88;;
26303;SDS011;57113;48.680;8.890;2023-03-02T15:32:59;20.70;;;12.45;;
26303;SDS011;57113;48.680;8.890;2023-03-02T15:35:28;21.08;;;12.05;;